aviador You're here:

KD55 Decoded Metar

in
Report Time2018-07-22 13:55:00
UTC Time2018-07-22 14:14:44
Flight Rules vfr VFR
Wind130° at 09 kt
W.Rank130° ranks 25
Current wind is below 130° avg. (10.1)
Visibility9999 m
Phenomena:N/A
Clouds:Overcast 110 Hf
Ceiling11,000 ft
Temp19°C
Dew Point19°C (100% RH)
QNH1017 hPa
Raw Report
KD55 221355Z AUTO 13009KT 10SM OVC110 19/19 A3004 RMK AO2=

Extra information for KD55:More info

Social comments